createdAt,value
2022-11-24T00:01:38.483Z,16.02
2022-11-24T00:04:04.958Z,15.99
2022-11-24T00:06:33.401Z,15.93
2022-11-24T00:08:59.723Z,15.89
2022-11-24T00:11:27.717Z,15.86
2022-11-24T00:13:54.050Z,15.83
2022-11-24T00:16:22.322Z,15.78
2022-11-24T00:18:49.354Z,15.75
2022-11-24T00:21:15.664Z,15.72
2022-11-24T00:23:41.961Z,15.69
2022-11-24T00:26:10.566Z,15.65
2022-11-24T00:28:38.033Z,15.61
2022-11-24T00:31:08.095Z,15.58
2022-11-24T00:33:36.932Z,15.54
2022-11-24T00:36:03.251Z,15.52
2022-11-24T00:38:29.706Z,15.47
2022-11-24T00:40:56.140Z,15.44
2022-11-24T00:43:23.936Z,15.41
2022-11-24T00:45:50.392Z,15.38
2022-11-24T00:48:16.903Z,15.35
2022-11-24T00:50:43.349Z,15.33
2022-11-24T00:53:10.659Z,15.30
2022-11-24T00:55:36.977Z,15.28
2022-11-24T00:58:03.472Z,15.26
2022-11-24T01:00:30.621Z,15.23
2022-11-24T01:02:57.046Z,15.19
2022-11-24T01:05:28.245Z,15.16
2022-11-24T01:07:55.300Z,15.13
2022-11-24T01:10:21.614Z,15.10
2022-11-24T01:12:48.753Z,15.07
2022-11-24T01:15:15.969Z,15.04
2022-11-24T01:17:43.436Z,15.01
2022-11-24T01:20:15.221Z,14.98
2022-11-24T01:22:42.645Z,14.96
2022-11-24T01:25:14.301Z,14.94
2022-11-24T01:27:43.608Z,14.91
2022-11-24T01:30:10.647Z,14.89
2022-11-24T01:32:37.040Z,14.86
2022-11-24T01:35:03.387Z,14.82
2022-11-24T01:37:29.771Z,14.80
2022-11-24T01:39:56.130Z,14.78
2022-11-24T01:42:23.630Z,14.75
2022-11-24T01:44:50.278Z,14.71
2022-11-24T01:47:17.714Z,14.71
2022-11-24T01:49:44.049Z,14.68
2022-11-24T01:52:10.416Z,14.65
2022-11-24T01:54:37.254Z,14.64
2022-11-24T01:57:05.285Z,14.62
2022-11-24T01:59:32.900Z,14.60
2022-11-24T02:02:01.248Z,14.57
2022-11-24T02:04:28.185Z,14.56
2022-11-24T02:06:56.555Z,14.55
2022-11-24T02:09:22.967Z,14.52
2022-11-24T02:11:49.298Z,14.50
2022-11-24T02:14:15.780Z,14.49
2022-11-24T02:16:43.396Z,14.47
2022-11-24T02:19:10.125Z,14.46
2022-11-24T02:21:37.549Z,14.45
2022-11-24T02:24:03.905Z,14.42
2022-11-24T02:26:30.274Z,14.39
2022-11-24T02:28:56.683Z,14.38
2022-11-24T02:31:23.231Z,14.35
2022-11-24T02:33:51.073Z,14.33
2022-11-24T02:36:17.417Z,14.32
2022-11-24T02:38:45.525Z,14.30
2022-11-24T02:41:11.836Z,14.28
2022-11-24T02:43:38.190Z,14.26
2022-11-24T02:46:05.325Z,14.24
2022-11-24T02:48:31.695Z,14.23
2022-11-24T02:50:58.340Z,14.22
2022-11-24T02:53:25.539Z,14.21
2022-11-24T02:55:54.185Z,14.22
2022-11-24T02:58:20.793Z,14.21
2022-11-24T03:00:49.539Z,14.20
2022-11-24T03:03:15.899Z,14.18
2022-11-24T03:05:42.657Z,14.16
2022-11-24T03:08:09.832Z,14.15
2022-11-24T03:10:37.934Z,14.11
2022-11-24T03:13:04.306Z,14.09
2022-11-24T03:15:30.998Z,14.06
2022-11-24T03:17:57.420Z,14.04
2022-11-24T03:20:23.852Z,14.01
2022-11-24T03:22:50.189Z,13.99
2022-11-24T03:25:16.780Z,13.99
2022-11-24T03:27:43.079Z,13.96
2022-11-24T03:30:11.738Z,13.95
2022-11-24T03:32:38.820Z,13.93
2022-11-24T03:35:05.103Z,13.92
2022-11-24T03:37:32.125Z,13.89
2022-11-24T03:39:59.538Z,13.88
2022-11-24T03:42:25.880Z,13.85
2022-11-24T03:44:54.044Z,13.83
2022-11-24T03:47:20.394Z,13.81
2022-11-24T03:49:48.760Z,13.78
2022-11-24T03:52:15.134Z,13.77
2022-11-24T03:54:41.879Z,13.75
2022-11-24T03:57:08.472Z,13.73
2022-11-24T03:59:35.464Z,13.71
2022-11-24T04:02:01.876Z,13.72
2022-11-24T04:04:29.201Z,13.71
2022-11-24T04:06:55.861Z,13.71
2022-11-24T04:09:22.182Z,13.72
2022-11-24T04:11:48.482Z,13.71
2022-11-24T04:14:15.441Z,13.71
2022-11-24T04:16:42.382Z,13.71
2022-11-24T04:19:09.182Z,13.70
2022-11-24T04:21:36.231Z,13.68
2022-11-24T04:24:02.749Z,13.66
2022-11-24T04:26:29.230Z,13.65
2022-11-24T04:28:55.693Z,13.62
2022-11-24T04:31:22.049Z,13.60
2022-11-24T04:33:48.472Z,13.58
2022-11-24T04:36:14.823Z,13.56
2022-11-24T04:39:19.959Z,13.56
2022-11-24T04:41:29.215Z,13.53
2022-11-24T04:43:56.370Z,13.53
2022-11-24T04:46:22.943Z,13.51
2022-11-24T04:48:49.265Z,13.50
2022-11-24T04:51:15.643Z,13.47
2022-11-24T04:53:41.941Z,13.46
2022-11-24T04:56:08.561Z,13.46
2022-11-24T04:58:34.892Z,13.44
2022-11-24T05:01:01.952Z,13.43
2022-11-24T05:03:28.294Z,13.44
2022-11-24T05:05:54.784Z,13.42
2022-11-24T05:08:22.747Z,13.40
2022-11-24T05:10:51.322Z,13.37
2022-11-24T05:13:18.077Z,13.38
2022-11-24T05:15:44.468Z,13.36
2022-11-24T05:18:10.765Z,13.35
2022-11-24T05:20:39.008Z,13.34
2022-11-24T05:23:06.435Z,13.31
2022-11-24T05:25:33.822Z,13.30
2022-11-24T05:28:00.999Z,13.29
2022-11-24T05:30:28.074Z,13.28
2022-11-24T05:32:55.299Z,13.27
2022-11-24T05:35:22.857Z,13.26
2022-11-24T05:37:51.055Z,13.24
2022-11-24T05:40:19.135Z,13.23
2022-11-24T05:42:48.045Z,13.23
2022-11-24T05:45:14.700Z,13.22
2022-11-24T05:47:40.997Z,13.22
2022-11-24T05:50:07.235Z,13.22
2022-11-24T05:52:33.834Z,13.20
2022-11-24T05:55:00.113Z,13.20
2022-11-24T05:57:26.399Z,13.20
2022-11-24T05:59:53.656Z,13.19
2022-11-24T06:02:20.094Z,13.19
2022-11-24T06:04:46.476Z,13.19
2022-11-24T06:07:13.139Z,13.18
2022-11-24T06:09:39.440Z,13.16
2022-11-24T06:12:06.699Z,13.15
2022-11-24T06:14:33.509Z,13.14
2022-11-24T06:17:01.402Z,13.14
2022-11-24T06:19:27.634Z,13.14
2022-11-24T06:21:53.915Z,13.14
2022-11-24T06:24:20.340Z,13.13
2022-11-24T06:26:46.579Z,13.12
2022-11-24T06:29:14.173Z,13.09
2022-11-24T06:31:40.481Z,13.10
2022-11-24T06:34:07.333Z,13.08
2022-11-24T06:36:34.492Z,13.08
2022-11-24T06:39:01.423Z,13.08
2022-11-24T06:41:30.090Z,13.06
2022-11-24T06:43:57.391Z,13.06
2022-11-24T06:46:23.762Z,13.05
2022-11-24T06:48:50.109Z,13.04
2022-11-24T06:51:17.621Z,13.05
2022-11-24T06:53:44.415Z,13.17
2022-11-24T06:56:16.265Z,13.46
2022-11-24T06:58:45.767Z,13.79
2022-11-24T07:01:12.122Z,14.06
2022-11-24T07:03:40.821Z,14.30
2022-11-24T07:06:08.741Z,14.50
2022-11-24T07:08:36.337Z,14.68
2022-11-24T07:11:03.508Z,14.83
2022-11-24T07:13:29.838Z,14.96
2022-11-24T07:15:57.404Z,15.08
2022-11-24T07:18:24.108Z,15.18
2022-11-24T07:20:51.532Z,15.27
2022-11-24T07:23:17.981Z,15.37
2022-11-24T07:25:44.344Z,15.44
2022-11-24T07:28:10.756Z,15.52
2022-11-24T07:30:37.807Z,15.59
2022-11-24T07:33:04.077Z,15.67
2022-11-24T07:35:30.349Z,15.75
2022-11-24T07:37:56.739Z,15.84
2022-11-24T07:40:23.048Z,15.90
2022-11-24T07:42:49.793Z,15.98
2022-11-24T07:45:16.416Z,16.06
2022-11-24T07:47:43.246Z,16.13
2022-11-24T07:50:09.525Z,16.18
2022-11-24T07:52:37.683Z,16.22
2022-11-24T07:55:04.237Z,16.28
2022-11-24T07:57:31.625Z,16.33
2022-11-24T07:59:59.297Z,16.37
2022-11-24T08:02:26.494Z,16.40
2022-11-24T08:04:52.796Z,16.42
2022-11-24T08:07:19.142Z,16.44
2022-11-24T08:09:46.314Z,16.48
2022-11-24T08:12:13.327Z,16.52
2022-11-24T08:14:41.468Z,16.56
2022-11-24T08:17:07.797Z,16.59
2022-11-24T08:19:34.764Z,16.64
2022-11-24T08:22:03.068Z,16.67
2022-11-24T08:24:29.403Z,16.69
2022-11-24T08:26:56.963Z,16.73
2022-11-24T08:29:23.366Z,16.76
2022-11-24T08:31:49.760Z,16.76
2022-11-24T08:34:16.047Z,16.77
2022-11-24T08:36:43.022Z,16.79
2022-11-24T08:39:09.886Z,16.82
2022-11-24T08:41:37.066Z,16.83
2022-11-24T08:44:03.514Z,16.88
2022-11-24T08:46:30.546Z,16.90
2022-11-24T08:48:57.336Z,16.92
2022-11-24T08:51:24.817Z,16.95
2022-11-24T08:53:51.111Z,16.97
2022-11-24T08:56:18.221Z,16.98
2022-11-24T08:58:44.525Z,17.00
2022-11-24T09:01:12.674Z,17.02
2022-11-24T09:03:42.195Z,17.05
2022-11-24T09:06:12.233Z,17.07
2022-11-24T09:08:38.523Z,17.11
2022-11-24T09:11:04.877Z,17.15
2022-11-24T09:13:33.390Z,17.19
2022-11-24T09:16:00.707Z,17.20
2022-11-24T09:18:30.272Z,17.21
2022-11-24T09:20:57.368Z,17.23
2022-11-24T09:23:23.638Z,17.26
2022-11-24T09:25:49.915Z,17.27
2022-11-24T09:28:17.852Z,17.30
2022-11-24T09:30:44.155Z,17.33
2022-11-24T09:33:12.495Z,17.35
2022-11-24T09:35:38.728Z,17.36
2022-11-24T09:38:04.998Z,17.39
2022-11-24T09:40:31.305Z,17.41
2022-11-24T09:42:57.705Z,17.29
2022-11-24T09:45:49.064Z,17.44
2022-11-24T09:48:11.892Z,17.44
2022-11-24T09:50:38.169Z,17.45
2022-11-24T09:53:04.519Z,17.46
2022-11-24T09:55:30.821Z,17.47
2022-11-24T09:57:58.173Z,17.47
2022-11-24T10:00:24.459Z,17.49
2022-11-24T10:02:50.775Z,17.50
2022-11-24T10:05:18.624Z,17.49
2022-11-24T10:07:44.940Z,17.49
2022-11-24T10:10:18.516Z,17.50
2022-11-24T10:12:48.299Z,17.51
2022-11-24T10:15:14.764Z,17.51
2022-11-24T10:17:41.245Z,17.54
2022-11-24T10:20:07.634Z,17.56
2022-11-24T10:22:33.963Z,17.61
2022-11-24T10:25:00.327Z,17.61
2022-11-24T10:27:26.605Z,17.62
2022-11-24T10:29:57.410Z,17.62
2022-11-24T10:32:23.709Z,17.62
2022-11-24T10:34:51.304Z,17.64
2022-11-24T10:37:17.735Z,17.64
2022-11-24T10:39:44.010Z,17.65
2022-11-24T10:42:10.241Z,17.67
2022-11-24T10:44:36.726Z,17.67
2022-11-24T10:47:03.771Z,17.68
2022-11-24T10:49:31.680Z,17.68
2022-11-24T10:51:58.097Z,17.70
2022-11-24T10:54:24.931Z,17.72
2022-11-24T10:56:51.629Z,17.75
2022-11-24T10:59:17.892Z,17.81
2022-11-24T11:01:44.366Z,17.83
2022-11-24T11:04:13.378Z,17.82
2022-11-24T11:06:39.753Z,17.84
2022-11-24T11:09:06.028Z,17.87
2022-11-24T11:11:32.740Z,17.86
2022-11-24T11:14:04.181Z,17.96
2022-11-24T11:16:31.184Z,18.01
2022-11-24T11:18:57.441Z,18.10
2022-11-24T11:21:24.211Z,18.12
2022-11-24T11:23:50.636Z,18.22
2022-11-24T11:26:17.569Z,18.22
2022-11-24T11:28:43.937Z,18.20
2022-11-24T11:31:16.366Z,18.30
2022-11-24T11:36:31.187Z,18.37
2022-11-24T11:38:57.769Z,18.37
2022-11-24T11:41:24.094Z,18.32
2022-11-24T11:43:50.622Z,18.29
2022-11-24T11:46:17.564Z,18.35
2022-11-24T11:48:44.168Z,18.40
2022-11-24T11:51:26.246Z,18.50
2022-11-24T11:53:52.910Z,18.58
2022-11-24T11:56:19.352Z,18.63
2022-11-24T11:58:46.697Z,18.67
2022-11-24T12:01:14.470Z,18.57
2022-11-24T12:03:42.054Z,18.50
2022-11-24T12:06:09.248Z,18.50
2022-11-24T12:08:55.965Z,18.48
2022-11-24T12:11:24.314Z,18.48
2022-11-24T12:13:51.365Z,18.49
2022-11-24T12:16:18.471Z,18.48
2022-11-24T12:19:02.527Z,18.35
2022-11-24T12:21:29.294Z,18.46
2022-11-24T12:23:55.638Z,18.45
2022-11-24T12:26:23.035Z,18.45
2022-11-24T12:28:51.440Z,18.43
2022-11-24T12:31:19.221Z,18.43
2022-11-24T12:33:51.611Z,18.42
2022-11-24T12:36:19.544Z,18.42
2022-11-24T12:38:45.937Z,18.43
2022-11-24T12:44:00.055Z,18.42
2022-11-24T12:46:27.289Z,18.42
2022-11-24T12:48:54.128Z,18.40
2022-11-24T12:51:20.845Z,18.39
2022-11-24T12:53:47.265Z,18.39
2022-11-24T12:56:13.522Z,18.39
2022-11-24T12:58:40.066Z,18.38
2022-11-24T13:01:09.313Z,18.36
2022-11-24T13:03:41.165Z,18.36
2022-11-24T13:06:11.250Z,18.37
2022-11-24T13:08:38.678Z,18.37
2022-11-24T13:11:06.320Z,18.40
2022-11-24T13:13:32.582Z,18.40
2022-11-24T13:18:46.949Z,18.40
2022-11-24T13:21:13.312Z,18.41
2022-11-24T13:23:39.640Z,18.44
2022-11-24T13:26:05.998Z,18.47
2022-11-24T13:29:00.326Z,18.48
2022-11-24T13:31:22.001Z,18.46
2022-11-24T13:33:48.424Z,18.46
2022-11-24T13:36:14.795Z,18.45
2022-11-24T13:38:41.115Z,18.44
2022-11-24T13:41:27.778Z,18.35
2022-11-24T13:43:54.205Z,18.44
2022-11-24T13:46:20.542Z,18.44
2022-11-24T13:48:46.840Z,18.46
2022-11-24T13:51:14.167Z,18.46
2022-11-24T13:53:40.889Z,18.46
2022-11-24T13:56:08.709Z,18.45
2022-11-24T13:58:34.980Z,18.44
2022-11-24T14:01:01.892Z,18.44
2022-11-24T14:03:28.257Z,18.43
2022-11-24T14:05:54.809Z,18.43
2022-11-24T14:08:21.073Z,18.40
2022-11-24T14:10:47.397Z,18.40
2022-11-24T14:13:13.929Z,18.39
2022-11-24T14:15:40.789Z,18.38
2022-11-24T14:18:08.783Z,18.38
2022-11-24T14:20:36.656Z,18.38
2022-11-24T14:23:03.656Z,18.38
2022-11-24T14:25:30.633Z,18.39
2022-11-24T14:27:58.239Z,18.39
2022-11-24T14:30:24.533Z,18.39
2022-11-24T14:32:50.735Z,18.38
2022-11-24T14:35:17.260Z,18.38
2022-11-24T14:37:44.805Z,18.37
2022-11-24T14:40:11.073Z,18.37
2022-11-24T14:42:37.375Z,18.37
2022-11-24T14:45:04.986Z,18.37
2022-11-24T14:47:32.428Z,18.36
2022-11-24T14:49:59.133Z,18.36
2022-11-24T14:52:25.510Z,18.36
2022-11-24T14:54:51.824Z,18.35
2022-11-24T14:57:18.070Z,18.36
2022-11-24T14:59:44.425Z,18.35
2022-11-24T15:02:10.812Z,18.35
2022-11-24T15:05:01.606Z,18.35
2022-11-24T15:07:23.508Z,18.35
2022-11-24T15:09:50.344Z,18.33
2022-11-24T15:12:16.645Z,18.33
2022-11-24T15:14:43.497Z,18.33
2022-11-24T15:17:09.910Z,18.31
2022-11-24T15:19:37.316Z,18.31
2022-11-24T15:22:05.296Z,18.31
2022-11-24T15:24:32.355Z,18.30
2022-11-24T15:27:00.524Z,18.29
2022-11-24T15:29:26.800Z,18.29
2022-11-24T15:31:53.331Z,18.29
2022-11-24T15:34:19.708Z,18.29
2022-11-24T15:36:46.014Z,18.29
2022-11-24T15:39:12.314Z,18.28
2022-11-24T15:41:38.808Z,18.27
2022-11-24T15:44:06.716Z,18.26
2022-11-24T15:46:34.589Z,18.25
2022-11-24T15:49:01.325Z,18.24
2022-11-24T15:51:28.634Z,18.24
2022-11-24T15:54:00.414Z,18.22
2022-11-24T15:56:28.688Z,18.23
2022-11-24T15:58:55.780Z,18.23
2022-11-24T16:01:22.297Z,18.23
2022-11-24T16:03:49.374Z,18.23
2022-11-24T16:06:23.412Z,18.22
2022-11-24T16:08:53.119Z,18.22
2022-11-24T16:11:19.511Z,18.21
2022-11-24T16:13:52.447Z,18.22
2022-11-24T16:16:20.939Z,18.22
2022-11-24T16:18:47.406Z,18.22
2022-11-24T16:21:13.905Z,18.22
2022-11-24T16:23:42.244Z,18.21
2022-11-24T16:26:08.552Z,18.22
2022-11-24T16:28:34.839Z,18.24
2022-11-24T16:31:01.188Z,18.25
2022-11-24T16:33:29.638Z,18.27
2022-11-24T16:35:58.135Z,18.27
2022-11-24T16:38:24.413Z,18.29
2022-11-24T16:40:51.445Z,18.30
2022-11-24T16:43:17.705Z,18.31
2022-11-24T16:45:45.669Z,18.32
2022-11-24T16:48:13.472Z,18.32
2022-11-24T16:50:40.480Z,18.23
2022-11-24T16:53:06.801Z,18.33
2022-11-24T16:55:33.090Z,18.33
2022-11-24T16:57:59.399Z,18.34
2022-11-24T17:00:27.916Z,18.33
2022-11-24T17:02:54.774Z,18.34
2022-11-24T17:05:21.143Z,18.33
2022-11-24T17:07:47.616Z,18.34
2022-11-24T17:10:14.250Z,18.35
2022-11-24T17:12:40.611Z,18.35
2022-11-24T17:15:31.942Z,18.35
2022-11-24T17:18:22.415Z,18.36
2022-11-24T17:20:40.310Z,18.35
2022-11-24T17:23:07.573Z,18.36
2022-11-24T17:25:33.908Z,18.36
2022-11-24T17:28:01.593Z,18.36
2022-11-24T17:30:27.920Z,18.35
2022-11-24T17:32:57.005Z,18.36
2022-11-24T17:35:24.091Z,18.36
2022-11-24T17:37:50.517Z,18.36
2022-11-24T17:40:32.129Z,18.35
2022-11-24T17:42:58.738Z,18.35
2022-11-24T17:45:26.744Z,18.36
2022-11-24T17:47:53.619Z,18.35
2022-11-24T17:50:24.065Z,18.35
2022-11-24T17:52:53.877Z,18.36
2022-11-24T17:55:21.083Z,18.35
2022-11-24T17:57:47.416Z,18.35
2022-11-24T18:00:13.742Z,18.34
2022-11-24T18:02:41.899Z,18.33
2022-11-24T18:05:08.416Z,18.32
2022-11-24T18:07:34.882Z,18.33
2022-11-24T18:10:01.198Z,18.32
2022-11-24T18:12:29.127Z,18.32
2022-11-24T18:14:56.357Z,18.32
2022-11-24T18:17:23.300Z,18.31
2022-11-24T18:19:50.484Z,18.30
2022-11-24T18:22:16.822Z,18.29
2022-11-24T18:24:44.997Z,18.28
2022-11-24T18:27:11.245Z,18.26
2022-11-24T18:29:37.499Z,18.26
2022-11-24T18:32:03.862Z,18.25
2022-11-24T18:34:30.287Z,18.24
2022-11-24T18:36:56.551Z,18.22
2022-11-24T18:39:24.265Z,18.22
2022-11-24T18:41:50.642Z,18.21
2022-11-24T18:44:16.940Z,18.21
2022-11-24T18:46:43.291Z,18.19
2022-11-24T18:49:11.152Z,18.18
2022-11-24T18:51:39.343Z,18.18
2022-11-24T18:54:05.822Z,18.17
2022-11-24T18:56:32.156Z,18.16
2022-11-24T18:58:59.802Z,18.15
2022-11-24T19:01:26.189Z,18.15
2022-11-24T19:03:52.586Z,18.14
2022-11-24T19:06:19.006Z,18.13
2022-11-24T19:08:45.270Z,18.13
2022-11-24T19:11:11.553Z,18.15
2022-11-24T19:13:40.138Z,18.15
2022-11-24T19:16:06.534Z,18.16
2022-11-24T19:18:32.862Z,18.16
2022-11-24T19:21:01.505Z,18.16
2022-11-24T19:23:27.798Z,18.16
2022-11-24T19:25:54.733Z,18.17
2022-11-24T19:28:22.388Z,18.17
2022-11-24T19:30:48.897Z,18.18
2022-11-24T19:33:15.198Z,18.18
2022-11-24T19:35:42.270Z,18.20
2022-11-24T19:38:14.714Z,18.22
2022-11-24T19:40:41.529Z,18.21
2022-11-24T19:43:08.839Z,18.22
2022-11-24T19:45:36.081Z,18.22
2022-11-24T19:48:02.354Z,18.22
2022-11-24T19:50:30.347Z,18.23
2022-11-24T19:52:57.443Z,18.23
2022-11-24T19:55:23.753Z,18.23
2022-11-24T19:57:51.181Z,18.23
2022-11-24T20:00:18.476Z,18.23
2022-11-24T20:02:44.878Z,18.22
2022-11-24T20:05:11.262Z,18.21
2022-11-24T20:07:38.859Z,18.21
2022-11-24T20:10:08.110Z,18.20
2022-11-24T20:12:35.948Z,18.20
2022-11-24T20:15:02.163Z,18.20
2022-11-24T20:17:29.799Z,18.19
2022-11-24T20:19:56.153Z,18.19
2022-11-24T20:22:24.001Z,18.19
2022-11-24T20:24:50.369Z,18.17
2022-11-24T20:27:16.882Z,18.17
2022-11-24T20:29:46.911Z,18.16
2022-11-24T20:32:15.192Z,18.15
2022-11-24T20:34:41.433Z,18.14
2022-11-24T20:37:07.723Z,18.14
2022-11-24T20:39:33.994Z,18.14
2022-11-24T20:42:02.133Z,18.15
2022-11-24T20:44:30.730Z,18.14
2022-11-24T20:46:57.034Z,18.15
2022-11-24T20:49:24.367Z,18.14
2022-11-24T20:51:51.148Z,18.13
2022-11-24T20:54:17.417Z,18.13
2022-11-24T20:56:43.791Z,18.13
2022-11-24T20:59:12.319Z,18.12
2022-11-24T21:01:40.292Z,18.11
2022-11-24T21:04:06.584Z,18.11
2022-11-24T21:06:33.979Z,18.10
2022-11-24T21:09:03.916Z,18.10
2022-11-24T21:11:30.899Z,18.10
2022-11-24T21:13:58.231Z,18.09
2022-11-24T21:16:24.664Z,18.10
2022-11-24T21:18:51.206Z,18.11
2022-11-24T21:21:18.354Z,18.10
2022-11-24T21:23:44.890Z,18.10
2022-11-24T21:26:16.580Z,18.09
2022-11-24T21:28:44.383Z,18.09
2022-11-24T21:31:10.890Z,18.09
2022-11-24T21:33:37.457Z,18.08
2022-11-24T21:36:04.155Z,18.09
2022-11-24T21:38:30.436Z,18.09
2022-11-24T21:40:56.712Z,18.10
2022-11-24T21:43:23.296Z,18.10
2022-11-24T21:45:50.279Z,18.10
2022-11-24T21:48:16.577Z,18.10
2022-11-24T21:50:42.930Z,18.10
2022-11-24T21:53:10.461Z,18.09
2022-11-24T21:55:36.759Z,18.08
2022-11-24T21:58:04.278Z,18.09
2022-11-24T22:00:32.164Z,18.09
2022-11-24T22:02:58.500Z,18.10
2022-11-24T22:05:24.842Z,18.09
2022-11-24T22:07:51.589Z,18.09
2022-11-24T22:10:19.884Z,18.09
2022-11-24T22:12:46.468Z,18.07
2022-11-24T22:15:12.770Z,18.05
2022-11-24T22:17:39.027Z,18.01
2022-11-24T22:20:05.417Z,17.97
2022-11-24T22:22:31.701Z,17.91
2022-11-24T22:24:57.978Z,17.77
2022-11-24T22:27:24.275Z,17.64
2022-11-24T22:29:54.155Z,17.52
2022-11-24T22:32:20.763Z,17.40
2022-11-24T22:34:47.112Z,17.30
2022-11-24T22:37:14.338Z,17.21
2022-11-24T22:39:40.598Z,17.13
2022-11-24T22:42:07.005Z,17.07
2022-11-24T22:44:35.765Z,16.99
2022-11-24T22:47:04.081Z,16.90
2022-11-24T22:49:30.393Z,16.83
2022-11-24T22:51:57.141Z,16.78
2022-11-24T22:54:23.993Z,16.71
2022-11-24T22:56:50.380Z,16.65
2022-11-24T22:59:18.342Z,16.60
2022-11-24T23:01:44.590Z,16.55
2022-11-24T23:04:12.290Z,16.48
2022-11-24T23:06:38.552Z,16.42
2022-11-24T23:09:05.221Z,16.37
2022-11-24T23:11:37.392Z,16.30
2022-11-24T23:14:05.513Z,16.25
2022-11-24T23:16:32.016Z,16.21
2022-11-24T23:18:59.299Z,16.15
2022-11-24T23:21:26.406Z,16.10
2022-11-24T23:23:53.227Z,16.04
2022-11-24T23:26:21.236Z,15.99
2022-11-24T23:28:47.679Z,15.94
2022-11-24T23:31:14.443Z,15.89
2022-11-24T23:33:40.740Z,15.84
2022-11-24T23:36:07.040Z,15.80
2022-11-24T23:38:33.942Z,15.76
2022-11-24T23:41:00.567Z,15.72
2022-11-24T23:43:26.821Z,15.67
2022-11-24T23:45:53.890Z,15.62
2022-11-24T23:48:20.244Z,15.57
2022-11-24T23:50:46.561Z,15.54
2022-11-24T23:53:12.877Z,15.49
2022-11-24T23:55:39.646Z,15.44
2022-11-24T23:58:06.909Z,15.42
